sensor_id;sensor_type;location;lat;lon;timestamp;pressure;altitude;pressure_sealevel;temperature;humidity
5609;BME280;2826;51.354;9.588;2023-02-03T00:00:08;98814.69;;;5.20;100.00
5609;BME280;2826;51.354;9.588;2023-02-03T00:02:37;98807.84;;;5.21;100.00
5609;BME280;2826;51.354;9.588;2023-02-03T00:05:07;98792.34;;;5.26;100.00
5609;BME280;2826;51.354;9.588;2023-02-03T00:07:35;98784.63;;;5.27;100.00
5609;BME280;2826;51.354;9.588;2023-02-03T00:10:03;98778.59;;;5.30;100.00
5609;BME280;2826;51.354;9.588;2023-02-03T00:12:29;98779.41;;;5.36;100.00
5609;BME280;2826;51.354;9.588;2023-02-03T00:14:56;98783.63;;;5.45;100.00
5609;BME280;2826;51.354;9.588;2023-02-03T00:17:22;98779.34;;;5.46;100.00
5609;BME280;2826;51.354;9.588;2023-02-03T00:19:49;98771.56;;;5.51;100.00
5609;BME280;2826;51.354;9.588;2023-02-03T00:22:17;98768.91;;;5.60;100.00
5609;BME280;2826;51.354;9.588;2023-02-03T00:24:43;98774.03;;;5.63;100.00
5609;BME280;2826;51.354;9.588;2023-02-03T00:27:10;98766.25;;;5.71;100.00
5609;BME280;2826;51.354;9.588;2023-02-03T00:29:37;98746.50;;;5.73;100.00
5609;BME280;2826;51.354;9.588;2023-02-03T00:32:03;98743.06;;;5.72;100.00
5609;BME280;2826;51.354;9.588;2023-02-03T00:34:31;98742.19;;;5.73;100.00
5609;BME280;2826;51.354;9.588;2023-02-03T00:36:59;98761.84;;;5.81;100.00
5609;BME280;2826;51.354;9.588;2023-02-03T00:39:26;98768.72;;;5.80;100.00
5609;BME280;2826;51.354;9.588;2023-02-03T00:41:54;98762.72;;;5.80;100.00
5609;BME280;2826;51.354;9.588;2023-02-03T00:44:21;98748.13;;;5.80;100.00
5609;BME280;2826;51.354;9.588;2023-02-03T00:46:48;98758.41;;;5.83;100.00
5609;BME280;2826;51.354;9.588;2023-02-03T00:49:14;98747.22;;;5.84;100.00
5609;BME280;2826;51.354;9.588;2023-02-03T00:51:40;98754.97;;;5.83;100.00
5609;BME280;2826;51.354;9.588;2023-02-03T00:54:07;98743.84;;;5.79;100.00
5609;BME280;2826;51.354;9.588;2023-02-03T00:56:35;98741.19;;;5.85;100.00
5609;BME280;2826;51.354;9.588;2023-02-03T00:59:01;98738.56;;;5.92;100.00
5609;BME280;2826;51.354;9.588;2023-02-03T01:01:30;98730.09;;;5.83;100.00
5609;BME280;2826;51.354;9.588;2023-02-03T01:03:56;98736.88;;;5.91;100.00
5609;BME280;2826;51.354;9.588;2023-02-03T01:06:23;98739.47;;;5.91;100.00
5609;BME280;2826;51.354;9.588;2023-02-03T01:08:52;98733.44;;;5.88;100.00
5609;BME280;2826;51.354;9.588;2023-02-03T01:11:22;98738.63;;;5.85;100.00
5609;BME280;2826;51.354;9.588;2023-02-03T01:13:50;98709.63;;;5.71;100.00
5609;BME280;2826;51.354;9.588;2023-02-03T01:16:19;98731.78;;;5.86;100.00
5609;BME280;2826;51.354;9.588;2023-02-03T01:18:46;98730.00;;;5.91;100.00
5609;BME280;2826;51.354;9.588;2023-02-03T01:21:16;98705.25;;;5.78;100.00
5609;BME280;2826;51.354;9.588;2023-02-03T01:23:43;98724.88;;;5.88;100.00
5609;BME280;2826;51.354;9.588;2023-02-03T01:26:13;98729.22;;;5.83;100.00
5609;BME280;2826;51.354;9.588;2023-02-03T01:28:40;98724.84;;;5.91;100.00
5609;BME280;2826;51.354;9.588;2023-02-03T01:31:13;98732.56;;;5.89;100.00
5609;BME280;2826;51.354;9.588;2023-02-03T01:33:41;98726.59;;;5.89;100.00
5609;BME280;2826;51.354;9.588;2023-02-03T01:36:10;98736.00;;;5.93;100.00
5609;BME280;2826;51.354;9.588;2023-02-03T01:38:38;98737.66;;;5.97;100.00
5609;BME280;2826;51.354;9.588;2023-02-03T01:41:10;98735.88;;;6.03;100.00
5609;BME280;2826;51.354;9.588;2023-02-03T01:43:39;98700.78;;;5.95;100.00
5609;BME280;2826;51.354;9.588;2023-02-03T01:46:21;98726.41;;;6.08;100.00
5609;BME280;2826;51.354;9.588;2023-02-03T01:48:48;98725.50;;;6.10;100.00
5609;BME280;2826;51.354;9.588;2023-02-03T01:51:16;98728.88;;;6.14;100.00
5609;BME280;2826;51.354;9.588;2023-02-03T01:53:43;98728.13;;;6.07;100.00
5609;BME280;2826;51.354;9.588;2023-02-03T01:56:10;98733.22;;;6.10;100.00
5609;BME280;2826;51.354;9.588;2023-02-03T01:58:38;98715.22;;;6.09;100.00
5609;BME280;2826;51.354;9.588;2023-02-03T02:01:06;98707.47;;;6.12;100.00
5609;BME280;2826;51.354;9.588;2023-02-03T02:03:37;98710.94;;;6.11;100.00
5609;BME280;2826;51.354;9.588;2023-02-03T02:06:07;98675.97;;;5.88;100.00
5609;BME280;2826;51.354;9.588;2023-02-03T02:08:37;98714.31;;;6.14;100.00
5609;BME280;2826;51.354;9.588;2023-02-03T02:11:05;98710.84;;;6.17;100.00
5609;BME280;2826;51.354;9.588;2023-02-03T02:13:34;98722.03;;;6.13;100.00
5609;BME280;2826;51.354;9.588;2023-02-03T02:16:05;98727.16;;;6.18;100.00
5609;BME280;2826;51.354;9.588;2023-02-03T02:18:48;98740.06;;;6.13;100.00
5609;BME280;2826;51.354;9.588;2023-02-03T02:21:51;98733.22;;;6.13;100.00
5609;BME280;2826;51.354;9.588;2023-02-03T02:30:56;98716.91;;;6.10;100.00
5609;BME280;2826;51.354;9.588;2023-02-03T02:33:35;98715.09;;;6.18;100.00
5609;BME280;2826;51.354;9.588;2023-02-03T02:36:19;98707.34;;;6.21;100.00
5609;BME280;2826;51.354;9.588;2023-02-03T02:38:57;98700.38;;;6.30;100.00
5609;BME280;2826;51.354;9.588;2023-02-03T02:41:30;98685.75;;;6.32;100.00
5609;BME280;2826;51.354;9.588;2023-02-03T02:44:03;98687.47;;;6.31;100.00
5609;BME280;2826;51.354;9.588;2023-02-03T02:46:37;98681.47;;;6.31;100.00
5609;BME280;2826;51.354;9.588;2023-02-03T02:49:12;98681.44;;;6.34;100.00
5609;BME280;2826;51.354;9.588;2023-02-03T02:51:40;98683.16;;;6.33;100.00
5609;BME280;2826;51.354;9.588;2023-02-03T02:54:13;98677.97;;;6.35;100.00
5609;BME280;2826;51.354;9.588;2023-02-03T02:56:42;98683.94;;;6.38;100.00
5609;BME280;2826;51.354;9.588;2023-02-03T02:59:10;98681.41;;;6.35;100.00
5609;BME280;2826;51.354;9.588;2023-02-03T03:01:36;98660.81;;;6.35;100.00
5609;BME280;2826;51.354;9.588;2023-02-03T03:04:11;98641.13;;;6.30;100.00
5609;BME280;2826;51.354;9.588;2023-02-03T03:06:43;98624.75;;;6.34;100.00
5609;BME280;2826;51.354;9.588;2023-02-03T03:09:15;98617.03;;;6.35;100.00
5609;BME280;2826;51.354;9.588;2023-02-03T03:11:50;98620.38;;;6.40;100.00
5609;BME280;2826;51.354;9.588;2023-02-03T03:14:19;98632.38;;;6.42;100.00
5609;BME280;2826;51.354;9.588;2023-02-03T03:16:53;98634.00;;;6.49;100.00
5609;BME280;2826;51.354;9.588;2023-02-03T03:19:24;98627.13;;;6.46;100.00
5609;BME280;2826;51.354;9.588;2023-02-03T03:21:58;98615.13;;;6.45;100.00
5609;BME280;2826;51.354;9.588;2023-02-03T03:24:28;98620.19;;;6.51;100.00
5609;BME280;2826;51.354;9.588;2023-02-03T03:27:01;98629.63;;;6.52;100.00
5609;BME280;2826;51.354;9.588;2023-02-03T03:29:34;98638.25;;;6.50;100.00
5609;BME280;2826;51.354;9.588;2023-02-03T03:32:03;98671.78;;;6.47;100.00
5609;BME280;2826;51.354;9.588;2023-02-03T03:34:32;98682.03;;;6.51;100.00
5609;BME280;2826;51.354;9.588;2023-02-03T03:37:02;98680.16;;;6.60;100.00
5609;BME280;2826;51.354;9.588;2023-02-03T03:39:34;98675.88;;;6.62;100.00
5609;BME280;2826;51.354;9.588;2023-02-03T03:42:07;98681.03;;;6.60;100.00
5609;BME280;2826;51.354;9.588;2023-02-03T03:44:38;98689.66;;;6.59;100.00
5609;BME280;2826;51.354;9.588;2023-02-03T03:47:14;98684.50;;;6.58;100.00
5609;BME280;2826;51.354;9.588;2023-02-03T03:49:46;98685.38;;;6.58;100.00
5609;BME280;2826;51.354;9.588;2023-02-03T03:52:15;98684.50;;;6.58;100.00
5609;BME280;2826;51.354;9.588;2023-02-03T03:54:44;98681.94;;;6.58;100.00
5609;BME280;2826;51.354;9.588;2023-02-03T03:57:16;98669.25;;;6.44;100.00
5609;BME280;2826;51.354;9.588;2023-02-03T03:59:47;98670.81;;;6.56;100.00
5609;BME280;2826;51.354;9.588;2023-02-03T04:02:16;98678.44;;;6.62;100.00
5609;BME280;2826;51.354;9.588;2023-02-03T04:04:45;98666.38;;;6.64;100.00
5609;BME280;2826;51.354;9.588;2023-02-03T04:07:13;98644.06;;;6.63;100.00
5609;BME280;2826;51.354;9.588;2023-02-03T04:09:40;98656.09;;;6.62;100.00
5609;BME280;2826;51.354;9.588;2023-02-03T04:12:13;98647.47;;;6.65;100.00
5609;BME280;2826;51.354;9.588;2023-02-03T04:14:41;98642.25;;;6.68;100.00
5609;BME280;2826;51.354;9.588;2023-02-03T04:17:08;98648.31;;;6.65;100.00
5609;BME280;2826;51.354;9.588;2023-02-03T04:19:35;98640.41;;;6.76;100.00
5609;BME280;2826;51.354;9.588;2023-02-03T04:22:03;98644.75;;;6.74;100.00
5609;BME280;2826;51.354;9.588;2023-02-03T04:24:30;98628.28;;;6.82;100.00
5609;BME280;2826;51.354;9.588;2023-02-03T04:26:56;98630.78;;;6.88;100.00
5609;BME280;2826;51.354;9.588;2023-02-03T04:29:23;98628.97;;;6.93;100.00
5609;BME280;2826;51.354;9.588;2023-02-03T04:31:49;98614.28;;;6.97;100.00
5609;BME280;2826;51.354;9.588;2023-02-03T04:34:16;98613.44;;;6.96;100.00
5609;BME280;2826;51.354;9.588;2023-02-03T04:36:43;98591.91;;;6.99;100.00
5609;BME280;2826;51.354;9.588;2023-02-03T04:39:12;98594.47;;;7.00;100.00
5609;BME280;2826;51.354;9.588;2023-02-03T04:41:38;98588.31;;;7.06;100.00
5609;BME280;2826;51.354;9.588;2023-02-03T04:44:06;98590.00;;;7.09;100.00
5609;BME280;2826;51.354;9.588;2023-02-03T04:46:32;98577.09;;;7.09;99.45
5609;BME280;2826;51.354;9.588;2023-02-03T04:48:59;98589.91;;;7.15;99.35
5609;BME280;2826;51.354;9.588;2023-02-03T04:51:26;98576.94;;;7.18;98.98
5609;BME280;2826;51.354;9.588;2023-02-03T04:53:52;98560.66;;;7.16;99.02
5609;BME280;2826;51.354;9.588;2023-02-03T04:56:20;98567.59;;;7.12;98.38
5609;BME280;2826;51.354;9.588;2023-02-03T04:58:47;98572.75;;;7.12;98.79
5609;BME280;2826;51.354;9.588;2023-02-03T05:01:13;98578.88;;;7.06;98.60
5609;BME280;2826;51.354;9.588;2023-02-03T05:03:40;98586.66;;;7.03;99.09
5609;BME280;2826;51.354;9.588;2023-02-03T05:06:06;98587.63;;;6.98;99.21
5609;BME280;2826;51.354;9.588;2023-02-03T05:08:33;98579.88;;;6.98;99.31
5609;BME280;2826;51.354;9.588;2023-02-03T05:11:00;98574.78;;;6.96;99.77
5609;BME280;2826;51.354;9.588;2023-02-03T05:13:28;98579.06;;;6.97;99.66
5609;BME280;2826;51.354;9.588;2023-02-03T05:15:54;98565.38;;;6.93;99.49
5609;BME280;2826;51.354;9.588;2023-02-03T05:18:21;98561.03;;;6.96;99.83
5609;BME280;2826;51.354;9.588;2023-02-03T05:20:47;98554.97;;;6.98;99.69
5609;BME280;2826;51.354;9.588;2023-02-03T05:23:14;98563.44;;;7.05;99.08
5609;BME280;2826;51.354;9.588;2023-02-03T05:25:42;98571.19;;;7.03;97.77
5609;BME280;2826;51.354;9.588;2023-02-03T05:28:09;98565.72;;;7.21;96.06
5609;BME280;2826;51.354;9.588;2023-02-03T05:30:37;98568.75;;;7.41;94.97
5609;BME280;2826;51.354;9.588;2023-02-03T05:33:03;98554.91;;;7.45;93.54
5609;BME280;2826;51.354;9.588;2023-02-03T05:35:30;98559.94;;;7.52;93.66
5609;BME280;2826;51.354;9.588;2023-02-03T05:37:56;98554.81;;;7.50;93.62
5609;BME280;2826;51.354;9.588;2023-02-03T05:40:23;98550.72;;;7.40;93.09
5609;BME280;2826;51.354;9.588;2023-02-03T05:43:07;98535.91;;;7.48;93.00
5609;BME280;2826;51.354;9.588;2023-02-03T05:45:34;98546.13;;;7.54;92.98
5609;BME280;2826;51.354;9.588;2023-02-03T05:48:02;98551.50;;;7.43;92.58
5609;BME280;2826;51.354;9.588;2023-02-03T05:50:29;98549.63;;;7.52;92.39
5609;BME280;2826;51.354;9.588;2023-02-03T05:53:06;98552.22;;;7.52;92.43
5609;BME280;2826;51.354;9.588;2023-02-03T05:55:33;98558.34;;;7.46;92.15
5609;BME280;2826;51.354;9.588;2023-02-03T05:58:00;98566.81;;;7.53;90.87
5609;BME280;2826;51.354;9.588;2023-02-03T06:00:27;98571.75;;;7.64;90.83
5609;BME280;2826;51.354;9.588;2023-02-03T06:02:56;98561.47;;;7.61;90.17
5609;BME280;2826;51.354;9.588;2023-02-03T06:05:25;98546.13;;;7.54;90.05
5609;BME280;2826;51.354;9.588;2023-02-03T06:07:51;98557.28;;;7.55;90.08
5609;BME280;2826;51.354;9.588;2023-02-03T06:10:18;98564.09;;;7.57;89.66
5609;BME280;2826;51.354;9.588;2023-02-03T06:12:45;98535.16;;;7.43;89.86
5609;BME280;2826;51.354;9.588;2023-02-03T06:15:11;98561.41;;;7.64;89.65
5609;BME280;2826;51.354;9.588;2023-02-03T06:17:38;98552.09;;;7.56;89.24
5609;BME280;2826;51.354;9.588;2023-02-03T06:20:07;98543.25;;;7.67;88.86
5609;BME280;2826;51.354;9.588;2023-02-03T06:22:35;98558.63;;;7.73;88.50
5609;BME280;2826;51.354;9.588;2023-02-03T06:25:02;98556.81;;;7.77;88.03
5609;BME280;2826;51.354;9.588;2023-02-03T06:27:29;98555.91;;;7.79;87.64
5609;BME280;2826;51.354;9.588;2023-02-03T06:29:55;98558.56;;;7.76;87.81
5609;BME280;2826;51.354;9.588;2023-02-03T06:32:22;98556.09;;;7.71;87.47
5609;BME280;2826;51.354;9.588;2023-02-03T06:34:49;98563.09;;;7.66;87.59
5609;BME280;2826;51.354;9.588;2023-02-03T06:37:15;98549.97;;;7.76;86.91
5609;BME280;2826;51.354;9.588;2023-02-03T06:39:43;98534.47;;;7.76;86.53
5609;BME280;2826;51.354;9.588;2023-02-03T06:42:10;98543.00;;;7.79;86.21
5609;BME280;2826;51.354;9.588;2023-02-03T06:44:36;98538.53;;;7.86;85.96
5609;BME280;2826;51.354;9.588;2023-02-03T06:47:03;98539.25;;;7.93;85.79
5609;BME280;2826;51.354;9.588;2023-02-03T06:49:29;98549.84;;;7.80;85.90
5609;BME280;2826;51.354;9.588;2023-02-03T06:51:56;98534.31;;;7.83;85.30
5609;BME280;2826;51.354;9.588;2023-02-03T06:54:22;98548.88;;;7.86;84.39
5609;BME280;2826;51.354;9.588;2023-02-03T06:56:50;98546.72;;;8.05;84.25
5609;BME280;2826;51.354;9.588;2023-02-03T06:59:17;98568.09;;;8.12;82.85
5609;BME280;2826;51.354;9.588;2023-02-03T07:01:43;98550.75;;;8.17;82.50
5609;BME280;2826;51.354;9.588;2023-02-03T07:04:10;98529.09;;;8.23;82.08
5609;BME280;2826;51.354;9.588;2023-02-03T07:06:37;98546.91;;;8.34;81.94
5609;BME280;2826;51.354;9.588;2023-02-03T07:09:04;98562.44;;;8.32;82.11
5609;BME280;2826;51.354;9.588;2023-02-03T07:11:31;98552.84;;;8.37;82.12
5609;BME280;2826;51.354;9.588;2023-02-03T07:13:59;98570.81;;;8.44;81.87
5609;BME280;2826;51.354;9.588;2023-02-03T07:16:26;98554.38;;;8.46;82.01
5609;BME280;2826;51.354;9.588;2023-02-03T07:18:52;98536.13;;;8.54;81.31
5609;BME280;2826;51.354;9.588;2023-02-03T07:21:19;98537.84;;;8.52;81.44
5609;BME280;2826;51.354;9.588;2023-02-03T07:23:46;98535.25;;;8.54;81.64
5609;BME280;2826;51.354;9.588;2023-02-03T07:26:13;98533.66;;;8.48;81.97
5609;BME280;2826;51.354;9.588;2023-02-03T07:28:40;98533.50;;;8.56;82.40
5609;BME280;2826;51.354;9.588;2023-02-03T07:31:08;98529.56;;;8.39;84.03
5609;BME280;2826;51.354;9.588;2023-02-03T07:33:35;98555.31;;;8.44;84.54
5609;BME280;2826;51.354;9.588;2023-02-03T07:36:02;98546.44;;;8.54;84.52
5609;BME280;2826;51.354;9.588;2023-02-03T07:38:29;98539.69;;;8.47;84.56
5609;BME280;2826;51.354;9.588;2023-02-03T07:40:56;98549.09;;;8.49;85.07
5609;BME280;2826;51.354;9.588;2023-02-03T07:43:23;98551.69;;;8.49;85.52
5609;BME280;2826;51.354;9.588;2023-02-03T07:45:49;98544.84;;;8.48;85.66
5609;BME280;2826;51.354;9.588;2023-02-03T07:48:17;98540.38;;;8.55;85.34
5609;BME280;2826;51.354;9.588;2023-02-03T07:50:44;98543.00;;;8.52;85.80
5609;BME280;2826;51.354;9.588;2023-02-03T07:53:10;98546.50;;;8.51;86.22
5609;BME280;2826;51.354;9.588;2023-02-03T07:55:37;98557.75;;;8.48;86.13
5609;BME280;2826;51.354;9.588;2023-02-03T07:58:04;98551.81;;;8.45;86.54
5609;BME280;2826;51.354;9.588;2023-02-03T08:00:31;98545.66;;;8.50;87.02
5609;BME280;2826;51.354;9.588;2023-02-03T08:02:57;98554.13;;;8.57;86.78
5609;BME280;2826;51.354;9.588;2023-02-03T08:05:25;98547.41;;;8.48;87.23
5609;BME280;2826;51.354;9.588;2023-02-03T08:07:52;98539.50;;;8.56;87.12
5609;BME280;2826;51.354;9.588;2023-02-03T08:10:19;98549.00;;;8.56;87.39
5609;BME280;2826;51.354;9.588;2023-02-03T08:12:45;98548.41;;;8.43;88.44
5609;BME280;2826;51.354;9.588;2023-02-03T08:15:12;98567.56;;;8.35;89.75
5609;BME280;2826;51.354;9.588;2023-02-03T08:17:39;98561.47;;;8.38;90.17
5609;BME280;2826;51.354;9.588;2023-02-03T08:20:07;98560.41;;;8.45;89.46
5609;BME280;2826;51.354;9.588;2023-02-03T08:22:35;98552.06;;;8.35;90.01
5609;BME280;2826;51.354;9.588;2023-02-03T08:25:01;98558.94;;;8.35;90.36
5609;BME280;2826;51.354;9.588;2023-02-03T08:27:30;98555.22;;;8.45;90.10
5609;BME280;2826;51.354;9.588;2023-02-03T08:29:57;98551.66;;;8.51;89.68
5609;BME280;2826;51.354;9.588;2023-02-03T08:32:23;98541.59;;;8.40;89.62
5609;BME280;2826;51.354;9.588;2023-02-03T08:34:51;98537.13;;;8.47;89.69
5609;BME280;2826;51.354;9.588;2023-02-03T08:37:19;98524.88;;;8.55;89.33
5609;BME280;2826;51.354;9.588;2023-02-03T08:39:48;98528.34;;;8.54;89.33
5609;BME280;2826;51.354;9.588;2023-02-03T08:42:15;98523.88;;;8.61;89.36
5609;BME280;2826;51.354;9.588;2023-02-03T08:44:42;98523.31;;;8.48;90.17
5609;BME280;2826;51.354;9.588;2023-02-03T08:47:10;98522.25;;;8.57;89.63
5609;BME280;2826;51.354;9.588;2023-02-03T08:49:37;98513.66;;;8.56;89.65
5609;BME280;2826;51.354;9.588;2023-02-03T08:52:05;98505.28;;;8.46;89.68
5609;BME280;2826;51.354;9.588;2023-02-03T08:54:32;98525.81;;;8.53;89.82
5609;BME280;2826;51.354;9.588;2023-02-03T08:57:01;98514.56;;;8.52;89.80
5609;BME280;2826;51.354;9.588;2023-02-03T08:59:27;98520.38;;;8.63;89.14
5609;BME280;2826;51.354;9.588;2023-02-03T09:01:54;98513.38;;;8.67;88.75
5609;BME280;2826;51.354;9.588;2023-02-03T09:04:24;98527.03;;;8.72;89.13
5609;BME280;2826;51.354;9.588;2023-02-03T09:06:52;98522.97;;;8.62;89.51
5609;BME280;2826;51.354;9.588;2023-02-03T09:09:19;98516.75;;;8.71;89.17
5609;BME280;2826;51.354;9.588;2023-02-03T09:11:46;98511.81;;;8.61;89.77
5609;BME280;2826;51.354;9.588;2023-02-03T09:14:14;98520.28;;;8.67;89.29
5609;BME280;2826;51.354;9.588;2023-02-03T09:16:40;98520.19;;;8.70;89.47
5609;BME280;2826;51.354;9.588;2023-02-03T09:19:07;98511.72;;;8.65;89.92
5609;BME280;2826;51.354;9.588;2023-02-03T09:21:34;98514.47;;;8.58;90.29
5609;BME280;2826;51.354;9.588;2023-02-03T09:24:01;98518.34;;;8.75;89.76
5609;BME280;2826;51.354;9.588;2023-02-03T09:26:28;98519.63;;;8.58;90.25
5609;BME280;2826;51.354;9.588;2023-02-03T09:28:55;98502.84;;;8.75;89.50
5609;BME280;2826;51.354;9.588;2023-02-03T09:31:23;98504.78;;;8.67;90.28
5609;BME280;2826;51.354;9.588;2023-02-03T09:33:49;98478.81;;;8.70;90.21
5609;BME280;2826;51.354;9.588;2023-02-03T09:36:16;98493.59;;;8.66;90.16
5609;BME280;2826;51.354;9.588;2023-02-03T09:38:42;98501.19;;;8.72;89.79
5609;BME280;2826;51.354;9.588;2023-02-03T09:41:18;98488.88;;;8.81;89.40
5609;BME280;2826;51.354;9.588;2023-02-03T09:43:51;98507.09;;;8.78;89.47
5609;BME280;2826;51.354;9.588;2023-02-03T09:46:22;98483.41;;;8.92;88.67
5609;BME280;2826;51.354;9.588;2023-02-03T09:48:54;98493.97;;;8.84;88.66
5609;BME280;2826;51.354;9.588;2023-02-03T09:51:24;98469.06;;;8.81;88.50
5609;BME280;2826;51.354;9.588;2023-02-03T09:53:56;98499.56;;;9.00;87.85
5609;BME280;2826;51.354;9.588;2023-02-03T09:56:28;98489.63;;;8.86;88.50
5609;BME280;2826;51.354;9.588;2023-02-03T09:58:55;98505.75;;;8.94;88.10
5609;BME280;2826;51.354;9.588;2023-02-03T10:01:24;98487.84;;;8.88;87.70
5609;BME280;2826;51.354;9.588;2023-02-03T10:04:00;98499.88;;;8.89;88.59
5609;BME280;2826;51.354;9.588;2023-02-03T10:06:31;98519.63;;;8.92;88.41
5609;BME280;2826;51.354;9.588;2023-02-03T10:09:13;98516.00;;;8.99;87.99
5609;BME280;2826;51.354;9.588;2023-02-03T10:11:54;98528.91;;;8.99;87.73
5609;BME280;2826;51.354;9.588;2023-02-03T10:14:37;98509.16;;;8.96;88.21
5609;BME280;2826;51.354;9.588;2023-02-03T10:17:20;98520.25;;;9.00;87.99
5609;BME280;2826;51.354;9.588;2023-02-03T10:19:55;98510.81;;;8.99;87.92
5609;BME280;2826;51.354;9.588;2023-02-03T10:22:26;98464.59;;;8.86;87.74
5609;BME280;2826;51.354;9.588;2023-02-03T10:24:57;98494.00;;;9.14;87.64
5609;BME280;2826;51.354;9.588;2023-02-03T10:27:27;98512.28;;;9.08;88.46
5609;BME280;2826;51.354;9.588;2023-02-03T10:29:58;98503.44;;;9.17;87.76
5609;BME280;2826;51.354;9.588;2023-02-03T10:32:27;98504.44;;;9.11;88.24
5609;BME280;2826;51.354;9.588;2023-02-03T10:34:55;98497.44;;;9.14;88.70
5609;BME280;2826;51.354;9.588;2023-02-03T10:37:25;98514.88;;;9.08;88.83
5609;BME280;2826;51.354;9.588;2023-02-03T10:39:54;98502.50;;;9.19;88.47
5609;BME280;2826;51.354;9.588;2023-02-03T10:42:23;98494.16;;;9.08;89.10
5609;BME280;2826;51.354;9.588;2023-02-03T10:44:52;98473.66;;;9.01;89.59
5609;BME280;2826;51.354;9.588;2023-02-03T10:47:29;98489.81;;;9.10;89.55
5609;BME280;2826;51.354;9.588;2023-02-03T10:50:02;98494.06;;;9.12;89.19
5609;BME280;2826;51.354;9.588;2023-02-03T10:52:31;98478.72;;;9.06;89.08
5609;BME280;2826;51.354;9.588;2023-02-03T10:54:59;98468.00;;;9.19;88.51
5609;BME280;2826;51.354;9.588;2023-02-03T10:57:30;98482.78;;;9.15;88.28
5609;BME280;2826;51.354;9.588;2023-02-03T11:00:05;98491.19;;;9.22;88.03
5609;BME280;2826;51.354;9.588;2023-02-03T11:02:34;98468.81;;;9.21;87.61
5609;BME280;2826;51.354;9.588;2023-02-03T11:05:20;98486.78;;;9.25;87.34
5609;BME280;2826;51.354;9.588;2023-02-03T11:07:50;98478.44;;;9.15;87.27
5609;BME280;2826;51.354;9.588;2023-02-03T11:10:28;98482.81;;;9.13;87.24
5609;BME280;2826;51.354;9.588;2023-02-03T11:13:11;98466.00;;;9.28;86.81
5609;BME280;2826;51.354;9.588;2023-02-03T11:15:43;98459.91;;;9.30;86.59
5609;BME280;2826;51.354;9.588;2023-02-03T11:18:30;98462.19;;;9.40;86.12
5609;BME280;2826;51.354;9.588;2023-02-03T11:20:59;98472.09;;;9.26;87.23
5609;BME280;2826;51.354;9.588;2023-02-03T11:23:25;98462.31;;;9.37;86.83
5609;BME280;2826;51.354;9.588;2023-02-03T11:25:52;98463.16;;;9.36;86.85
5609;BME280;2826;51.354;9.588;2023-02-03T11:28:19;98438.28;;;9.32;86.85
5609;BME280;2826;51.354;9.588;2023-02-03T11:30:53;98429.44;;;9.39;86.99
5609;BME280;2826;51.354;9.588;2023-02-03T11:33:23;98433.88;;;9.36;86.71
5609;BME280;2826;51.354;9.588;2023-02-03T11:35:55;98423.69;;;9.30;87.24
5609;BME280;2826;51.354;9.588;2023-02-03T11:38:29;98439.78;;;9.39;87.29
5609;BME280;2826;51.354;9.588;2023-02-03T11:40:58;98437.16;;;9.41;87.17
5609;BME280;2826;51.354;9.588;2023-02-03T11:43:25;98429.44;;;9.39;87.39
5609;BME280;2826;51.354;9.588;2023-02-03T11:45:58;98447.63;;;9.36;87.10
5609;BME280;2826;51.354;9.588;2023-02-03T11:48:29;98388.59;;;9.21;87.55
5609;BME280;2826;51.354;9.588;2023-02-03T11:51:03;98428.56;;;9.39;87.31
5609;BME280;2826;51.354;9.588;2023-02-03T11:56:49;98435.56;;;9.37;88.28
5609;BME280;2826;51.354;9.588;2023-02-03T11:59:35;98450.50;;;9.27;88.91
5609;BME280;2826;51.354;9.588;2023-02-03T12:05:35;98436.97;;;9.17;91.04
5609;BME280;2826;51.354;9.588;2023-02-03T12:08:18;98478.88;;;9.00;93.18
5609;BME280;2826;51.354;9.588;2023-02-03T12:10:59;98453.19;;;8.94;94.88
5609;BME280;2826;51.354;9.588;2023-02-03T12:13:43;98475.09;;;8.82;96.31
5609;BME280;2826;51.354;9.588;2023-02-03T12:16:24;98470.28;;;8.68;96.77
5609;BME280;2826;51.354;9.588;2023-02-03T12:19:00;98469.31;;;8.72;97.07
5609;BME280;2826;51.354;9.588;2023-02-03T12:21:41;98482.63;;;8.56;97.92
5609;BME280;2826;51.354;9.588;2023-02-03T12:24:18;98469.84;;;8.50;99.28
5609;BME280;2826;51.354;9.588;2023-02-03T12:26:56;98457.78;;;8.50;99.83
5609;BME280;2826;51.354;9.588;2023-02-03T12:29:30;98439.59;;;8.55;100.00
5609;BME280;2826;51.354;9.588;2023-02-03T12:32:04;98452.50;;;8.55;100.00
5609;BME280;2826;51.354;9.588;2023-02-03T12:34:36;98456.72;;;8.59;100.00
5609;BME280;2826;51.354;9.588;2023-02-03T12:37:07;98458.50;;;8.57;100.00
5609;BME280;2826;51.354;9.588;2023-02-03T12:39:40;98462.00;;;8.55;100.00
5609;BME280;2826;51.354;9.588;2023-02-03T12:42:13;98485.22;;;8.56;99.40
5609;BME280;2826;51.354;9.588;2023-02-03T12:44:46;98493.91;;;8.54;98.87
5609;BME280;2826;51.354;9.588;2023-02-03T12:47:20;98491.13;;;8.61;98.11
5609;BME280;2826;51.354;9.588;2023-02-03T12:49:52;98489.72;;;8.48;97.00
5609;BME280;2826;51.354;9.588;2023-02-03T12:52:22;98489.38;;;8.62;97.17
5609;BME280;2826;51.354;9.588;2023-02-03T12:55:03;98452.06;;;8.37;96.83
5609;BME280;2826;51.354;9.588;2023-02-03T12:57:35;98477.06;;;8.72;96.31
5609;BME280;2826;51.354;9.588;2023-02-03T13:00:18;98484.28;;;8.59;96.87
5609;BME280;2826;51.354;9.588;2023-02-03T13:02:59;98467.97;;;8.57;97.28
5609;BME280;2826;51.354;9.588;2023-02-03T13:05:34;98491.81;;;8.68;97.52
5609;BME280;2826;51.354;9.588;2023-02-03T13:08:12;98498.97;;;8.58;98.05
5609;BME280;2826;51.354;9.588;2023-02-03T13:10:47;98509.06;;;8.68;97.98
5609;BME280;2826;51.354;9.588;2023-02-03T13:13:22;98490.44;;;8.55;99.28
5609;BME280;2826;51.354;9.588;2023-02-03T13:15:52;98497.31;;;8.56;99.87
5609;BME280;2826;51.354;9.588;2023-02-03T13:18:24;98517.06;;;8.58;99.74
5609;BME280;2826;51.354;9.588;2023-02-03T13:20:53;98499.38;;;8.41;100.00
5609;BME280;2826;51.354;9.588;2023-02-03T13:23:20;98497.19;;;8.24;100.00
5609;BME280;2826;51.354;9.588;2023-02-03T13:26:17;98529.78;;;8.30;100.00
5609;BME280;2826;51.354;9.588;2023-02-03T13:29:24;98520.63;;;8.16;100.00
5609;BME280;2826;51.354;9.588;2023-02-03T13:32:03;98492.50;;;8.05;100.00
5609;BME280;2826;51.354;9.588;2023-02-03T13:34:40;98493.38;;;8.04;100.00
5609;BME280;2826;51.354;9.588;2023-02-03T13:40:21;98492.31;;;8.11;98.91
5609;BME280;2826;51.354;9.588;2023-02-03T13:42:57;98497.75;;;8.01;97.65
5609;BME280;2826;51.354;9.588;2023-02-03T13:45:26;98490.66;;;8.09;96.75
5609;BME280;2826;51.354;9.588;2023-02-03T13:47:55;98508.72;;;8.10;96.76
5609;BME280;2826;51.354;9.588;2023-02-03T13:50:27;98517.28;;;8.13;95.79
5609;BME280;2826;51.354;9.588;2023-02-03T13:52:57;98517.94;;;8.21;94.88
5609;BME280;2826;51.354;9.588;2023-02-03T13:55:28;98508.59;;;8.17;93.81
5609;BME280;2826;51.354;9.588;2023-02-03T13:57:57;98501.53;;;8.23;93.04
5609;BME280;2826;51.354;9.588;2023-02-03T14:03:43;98524.41;;;8.03;92.21